N45FL KGNV-KAPF
Flight info
| Callsign | N45FL |
|---|---|
| Flight time | 0h 47m |
| Altitude | 16000 |
| Route | VARZE T349 WEZER/N0297F150 T349 QUNCY/N0293F140 |
| Aircraft | STAR/L-SDFGRWY/S |
Departure
| Time | 2026-04-22 15:40 |
|---|---|
| Airport | Gainesville Regional Airport (KGNV) |
Arrival
| Time | 2026-04-22 16:27 |
|---|---|
| Airport | Naples Municipal Airport (KAPF) |
| Time | Latitude | Longitude | Altitude | Speed | Heading |
|---|---|---|---|---|---|
| 2026-04-22 15:26 | 29.69549 | -82.27782 | 147 ft | 0 kts | 134° |
| 2026-04-22 15:35 | 29.69523 | -82.27766 | 146 ft | 8 kts | 170° |
| 2026-04-22 15:36 | 29.69451 | -82.27767 | 145 ft | 14 kts | 182° |
| 2026-04-22 15:36 | 29.69387 | -82.27846 | 147 ft | 13 kts | 242° |
| 2026-04-22 15:36 | 29.69347 | -82.27927 | 148 ft | 11 kts | 240° |
| 2026-04-22 15:36 | 29.69316 | -82.27990 | 150 ft | 7 kts | 239° |
| 2026-04-22 15:37 | 29.69297 | -82.28027 | 152 ft | 3 kts | 242° |
| 2026-04-22 15:37 | 29.69284 | -82.28060 | 154 ft | 10 kts | 243° |
| 2026-04-22 15:37 | 29.69258 | -82.28114 | 155 ft | 8 kts | 239° |
| 2026-04-22 15:37 | 29.69211 | -82.28151 | 156 ft | 8 kts | 195° |
| 2026-04-22 15:38 | 29.69164 | -82.28163 | 156 ft | 5 kts | 181° |
| 2026-04-22 15:38 | 29.69071 | -82.28104 | 155 ft | 6 kts | 120° |
| 2026-04-22 15:38 | 29.69057 | -82.28057 | 155 ft | 11 kts | 104° |
| 2026-04-22 15:39 | 29.69010 | -82.27814 | 152 ft | 57 kts | 102° |
| 2026-04-22 15:39 | 29.68886 | -82.27157 | 132 ft | 113 kts | 103° |
| 2026-04-22 15:39 | 29.68694 | -82.26145 | 312 ft | 144 kts | 104° |
| 2026-04-22 15:39 | 29.68497 | -82.24888 | 722 ft | 173 kts | 103° |
| 2026-04-22 15:40 | 29.68253 | -82.23512 | 1413 ft | 178 kts | 103° |
| 2026-04-22 15:40 | 29.67983 | -82.22115 | 2167 ft | 179 kts | 103° |
| 2026-04-22 15:40 | 29.67710 | -82.20719 | 2967 ft | 179 kts | 104° |
| 2026-04-22 15:40 | 29.67442 | -82.19319 | 3736 ft | 179 kts | 104° |
| 2026-04-22 15:41 | 29.66801 | -82.18124 | 4497 ft | 181 kts | 142° |
| 2026-04-22 15:41 | 29.65586 | -82.17711 | 5292 ft | 190 kts | 179° |
| 2026-04-22 15:41 | 29.64255 | -82.17887 | 6038 ft | 195 kts | 186° |
| 2026-04-22 15:41 | 29.62901 | -82.18110 | 6800 ft | 198 kts | 185° |
| 2026-04-22 15:42 | 29.61524 | -82.18287 | 7522 ft | 200 kts | 182° |
| 2026-04-22 15:42 | 29.60134 | -82.18382 | 8249 ft | 201 kts | 180° |
| 2026-04-22 15:42 | 29.58738 | -82.18407 | 8987 ft | 201 kts | 178° |
| 2026-04-22 15:42 | 29.57332 | -82.18398 | 9737 ft | 202 kts | 178° |
| 2026-04-22 15:43 | 29.55954 | -82.18375 | 10616 ft | 194 kts | 178° |
| 2026-04-22 15:43 | 29.54631 | -82.18285 | 11472 ft | 187 kts | 174° |
| 2026-04-22 15:43 | 29.53349 | -82.18089 | 12271 ft | 186 kts | 174° |
| 2026-04-22 15:43 | 29.52061 | -82.17929 | 13038 ft | 187 kts | 176° |
| 2026-04-22 15:44 | 29.50758 | -82.17788 | 13789 ft | 189 kts | 176° |
| 2026-04-22 15:44 | 29.49446 | -82.17624 | 14487 ft | 191 kts | 176° |
| 2026-04-22 15:44 | 29.48115 | -82.17454 | 15141 ft | 194 kts | 177° |
| 2026-04-22 15:44 | 29.46723 | -82.17291 | 15577 ft | 210 kts | 178° |
| 2026-04-22 15:45 | 29.45191 | -82.17112 | 15788 ft | 233 kts | 178° |
| 2026-04-22 15:45 | 29.43509 | -82.16900 | 15888 ft | 253 kts | 177° |
| 2026-04-22 15:45 | 29.41705 | -82.16678 | 15928 ft | 268 kts | 178° |
| 2026-04-22 15:45 | 29.39809 | -82.16450 | 15957 ft | 279 kts | 177° |
| 2026-04-22 15:46 | 29.37847 | -82.16208 | 15963 ft | 287 kts | 177° |
| 2026-04-22 15:46 | 29.35841 | -82.15964 | 15971 ft | 293 kts | 177° |
| 2026-04-22 15:46 | 29.33830 | -82.15720 | 15973 ft | 296 kts | 177° |
| 2026-04-22 15:46 | 29.31770 | -82.15469 | 15976 ft | 299 kts | 177° |
| 2026-04-22 15:47 | 29.29665 | -82.15213 | 15975 ft | 301 kts | 177° |
| 2026-04-22 15:47 | 29.27608 | -82.14963 | 15978 ft | 302 kts | 177° |
| 2026-04-22 15:47 | 29.25516 | -82.14710 | 15979 ft | 303 kts | 177° |
| 2026-04-22 15:47 | 29.23419 | -82.14454 | 15980 ft | 303 kts | 177° |
| 2026-04-22 15:48 | 29.21319 | -82.14200 | 15977 ft | 304 kts | 177° |
| 2026-04-22 15:48 | 29.19182 | -82.13941 | 15981 ft | 306 kts | 177° |
| 2026-04-22 15:48 | 29.17086 | -82.13687 | 15980 ft | 309 kts | 177° |
| 2026-04-22 15:48 | 29.14945 | -82.13427 | 15981 ft | 310 kts | 177° |
| 2026-04-22 15:49 | 29.12802 | -82.13167 | 15979 ft | 310 kts | 177° |
| 2026-04-22 15:49 | 29.10653 | -82.12907 | 15978 ft | 311 kts | 177° |
| 2026-04-22 15:49 | 29.08503 | -82.12646 | 15979 ft | 311 kts | 177° |
| 2026-04-22 15:49 | 29.06344 | -82.12385 | 15976 ft | 312 kts | 177° |
| 2026-04-22 15:50 | 29.04182 | -82.12124 | 15977 ft | 313 kts | 177° |
| 2026-04-22 15:50 | 29.02017 | -82.11862 | 15973 ft | 313 kts | 177° |
| 2026-04-22 15:50 | 28.99854 | -82.11601 | 15970 ft | 312 kts | 177° |
| 2026-04-22 15:50 | 28.97692 | -82.11339 | 15967 ft | 312 kts | 177° |
| 2026-04-22 15:51 | 28.95533 | -82.11079 | 15965 ft | 312 kts | 177° |
| 2026-04-22 15:51 | 28.93372 | -82.10817 | 15961 ft | 312 kts | 177° |
| 2026-04-22 15:51 | 28.91210 | -82.10557 | 15961 ft | 312 kts | 177° |
| 2026-04-22 15:51 | 28.89052 | -82.10296 | 15960 ft | 312 kts | 177° |
| 2026-04-22 15:52 | 28.86891 | -82.10035 | 15962 ft | 312 kts | 177° |
| 2026-04-22 15:52 | 28.84732 | -82.09776 | 15964 ft | 312 kts | 177° |
| 2026-04-22 15:52 | 28.82577 | -82.09515 | 15962 ft | 312 kts | 177° |
| 2026-04-22 15:52 | 28.80418 | -82.09256 | 15960 ft | 312 kts | 177° |
| 2026-04-22 15:53 | 28.78264 | -82.08997 | 15963 ft | 312 kts | 177° |
| 2026-04-22 15:53 | 28.76106 | -82.08737 | 15961 ft | 312 kts | 177° |
| 2026-04-22 15:53 | 28.73950 | -82.08478 | 15960 ft | 312 kts | 177° |
| 2026-04-22 15:53 | 28.71788 | -82.08218 | 15959 ft | 312 kts | 177° |
| 2026-04-22 15:54 | 28.69628 | -82.07958 | 15957 ft | 313 kts | 177° |
| 2026-04-22 15:54 | 28.67465 | -82.07699 | 15957 ft | 312 kts | 177° |
| 2026-04-22 15:54 | 28.65331 | -82.07442 | 15956 ft | 313 kts | 177° |
| 2026-04-22 15:54 | 28.63168 | -82.07183 | 15955 ft | 312 kts | 177° |
| 2026-04-22 15:55 | 28.61006 | -82.06923 | 15954 ft | 312 kts | 177° |
| 2026-04-22 15:55 | 28.58843 | -82.06664 | 15950 ft | 313 kts | 177° |
| 2026-04-22 15:55 | 28.56679 | -82.06404 | 15946 ft | 312 kts | 177° |
| 2026-04-22 15:55 | 28.54519 | -82.06146 | 15945 ft | 312 kts | 177° |
| 2026-04-22 15:56 | 28.52360 | -82.05887 | 15951 ft | 312 kts | 177° |
| 2026-04-22 15:56 | 28.50200 | -82.05628 | 15949 ft | 312 kts | 177° |
| 2026-04-22 15:56 | 28.48041 | -82.05370 | 15951 ft | 312 kts | 177° |
| 2026-04-22 15:56 | 28.45886 | -82.05112 | 15950 ft | 311 kts | 177° |
| 2026-04-22 15:57 | 28.43730 | -82.04855 | 15952 ft | 312 kts | 177° |
| 2026-04-22 15:57 | 28.41575 | -82.04596 | 15956 ft | 312 kts | 177° |
| 2026-04-22 15:57 | 28.39419 | -82.04339 | 15958 ft | 312 kts | 177° |
| 2026-04-22 15:57 | 28.37260 | -82.04081 | 15955 ft | 312 kts | 177° |
| 2026-04-22 15:58 | 28.35103 | -82.03823 | 15955 ft | 312 kts | 177° |
| 2026-04-22 15:58 | 28.32945 | -82.03566 | 15958 ft | 312 kts | 177° |
| 2026-04-22 15:58 | 28.30788 | -82.03309 | 15960 ft | 312 kts | 177° |
| 2026-04-22 15:58 | 28.28628 | -82.03053 | 15960 ft | 312 kts | 178° |
| 2026-04-22 15:59 | 28.26469 | -82.02908 | 15960 ft | 309 kts | 184° |
| 2026-04-22 15:59 | 28.24326 | -82.03096 | 15958 ft | 309 kts | 189° |
| 2026-04-22 15:59 | 28.22181 | -82.03259 | 15959 ft | 309 kts | 185° |
| 2026-04-22 15:59 | 28.20034 | -82.03374 | 15959 ft | 309 kts | 187° |
| 2026-04-22 16:00 | 28.17887 | -82.03539 | 15960 ft | 309 kts | 186° |
| 2026-04-22 16:00 | 28.15735 | -82.03663 | 15958 ft | 310 kts | 186° |
| 2026-04-22 16:00 | 28.13585 | -82.03812 | 15959 ft | 310 kts | 187° |
| 2026-04-22 16:00 | 28.11435 | -82.03952 | 15943 ft | 310 kts | 186° |
| 2026-04-22 16:01 | 28.09283 | -82.04090 | 15943 ft | 310 kts | 186° |
| 2026-04-22 16:01 | 28.07129 | -82.04234 | 15944 ft | 310 kts | 186° |
| 2026-04-22 16:01 | 28.04976 | -82.04356 | 15939 ft | 311 kts | 183° |
| 2026-04-22 16:01 | 28.02831 | -82.03955 | 15944 ft | 315 kts | 167° |
| 2026-04-22 16:02 | 28.00781 | -82.03046 | 15940 ft | 319 kts | 156° |
| 2026-04-22 16:02 | 27.98840 | -82.01817 | 15945 ft | 320 kts | 152° |
| 2026-04-22 16:02 | 27.96962 | -82.00525 | 15948 ft | 321 kts | 151° |
| 2026-04-22 16:02 | 27.95002 | -81.99277 | 15942 ft | 318 kts | 158° |
| 2026-04-22 16:03 | 27.92985 | -81.98237 | 15943 ft | 319 kts | 157° |
| 2026-04-22 16:03 | 27.91015 | -81.97082 | 15942 ft | 319 kts | 156° |
| 2026-04-22 16:03 | 27.89044 | -81.96001 | 15946 ft | 319 kts | 158° |
| 2026-04-22 16:03 | 27.87031 | -81.94946 | 15938 ft | 319 kts | 158° |
| 2026-04-22 16:04 | 27.85092 | -81.93711 | 15940 ft | 321 kts | 150° |
| 2026-04-22 16:04 | 27.83178 | -81.92417 | 15939 ft | 320 kts | 154° |
| 2026-04-22 16:04 | 27.81232 | -81.91197 | 15939 ft | 320 kts | 153° |
| 2026-04-22 16:04 | 27.79312 | -81.89920 | 15941 ft | 320 kts | 153° |
| 2026-04-22 16:05 | 27.78001 | -81.89083 | 15940 ft | 320 kts | 154° |
| 2026-04-22 16:05 | 27.75440 | -81.87424 | 15938 ft | 320 kts | 153° |
| 2026-04-22 16:05 | 27.73510 | -81.86171 | 15937 ft | 320 kts | 153° |
| 2026-04-22 16:05 | 27.71572 | -81.84920 | 15938 ft | 321 kts | 153° |
| 2026-04-22 16:06 | 27.69639 | -81.83665 | 15937 ft | 321 kts | 153° |
| 2026-04-22 16:06 | 27.67702 | -81.82413 | 15943 ft | 321 kts | 153° |
| 2026-04-22 16:06 | 27.65768 | -81.81161 | 15940 ft | 321 kts | 153° |
| 2026-04-22 16:06 | 27.63788 | -81.80012 | 15937 ft | 319 kts | 160° |
| 2026-04-22 16:07 | 27.61724 | -81.79108 | 15936 ft | 318 kts | 163° |
| 2026-04-22 16:07 | 27.59637 | -81.78281 | 15932 ft | 318 kts | 164° |
| 2026-04-22 16:07 | 27.57540 | -81.77490 | 15930 ft | 318 kts | 165° |
| 2026-04-22 16:07 | 27.55404 | -81.76905 | 15932 ft | 316 kts | 172° |
| 2026-04-22 16:08 | 27.53246 | -81.76423 | 15934 ft | 317 kts | 169° |
| 2026-04-22 16:08 | 27.51106 | -81.75831 | 15931 ft | 317 kts | 170° |
| 2026-04-22 16:08 | 27.48949 | -81.75307 | 15928 ft | 317 kts | 171° |
| 2026-04-22 16:08 | 27.46796 | -81.74750 | 15932 ft | 318 kts | 170° |
| 2026-04-22 16:09 | 27.44640 | -81.74199 | 15930 ft | 318 kts | 171° |
| 2026-04-22 16:09 | 27.42479 | -81.73656 | 15929 ft | 319 kts | 170° |
| 2026-04-22 16:09 | 27.40315 | -81.73100 | 15926 ft | 319 kts | 170° |
| 2026-04-22 16:09 | 27.38151 | -81.72554 | 15931 ft | 319 kts | 171° |
| 2026-04-22 16:10 | 27.35991 | -81.72006 | 15930 ft | 318 kts | 170° |
| 2026-04-22 16:10 | 27.33827 | -81.71457 | 15926 ft | 319 kts | 171° |
| 2026-04-22 16:10 | 27.32396 | -81.71094 | 15925 ft | 318 kts | 170° |
| 2026-04-22 16:10 | 27.30235 | -81.70546 | 15925 ft | 318 kts | 171° |
| 2026-04-22 16:11 | 27.28076 | -81.70000 | 15925 ft | 318 kts | 170° |
| 2026-04-22 16:11 | 27.25917 | -81.69452 | 15923 ft | 318 kts | 170° |
| 2026-04-22 16:11 | 27.23058 | -81.68729 | 15924 ft | 318 kts | 171° |
| 2026-04-22 16:11 | 27.20897 | -81.68183 | 15919 ft | 318 kts | 171° |
| 2026-04-22 16:12 | 27.18735 | -81.67635 | 15920 ft | 319 kts | 171° |
| 2026-04-22 16:12 | 27.16569 | -81.67089 | 15918 ft | 319 kts | 171° |
| 2026-04-22 16:12 | 27.15106 | -81.66720 | 15918 ft | 319 kts | 171° |
| 2026-04-22 16:12 | 27.12942 | -81.66172 | 15915 ft | 319 kts | 171° |
| 2026-04-22 16:13 | 27.10773 | -81.65624 | 15917 ft | 319 kts | 171° |
| 2026-04-22 16:13 | 27.08607 | -81.65079 | 15916 ft | 319 kts | 170° |
| 2026-04-22 16:13 | 27.06434 | -81.64596 | 15914 ft | 317 kts | 176° |
| 2026-04-22 16:13 | 27.04239 | -81.64477 | 15915 ft | 315 kts | 183° |
| 2026-04-22 16:14 | 27.02047 | -81.64511 | 15915 ft | 315 kts | 185° |
| 2026-04-22 16:14 | 26.99858 | -81.64594 | 15914 ft | 315 kts | 186° |
| 2026-04-22 16:14 | 26.97675 | -81.64733 | 15917 ft | 313 kts | 190° |
| 2026-04-22 16:14 | 26.95531 | -81.65126 | 15913 ft | 313 kts | 193° |
| 2026-04-22 16:15 | 26.93371 | -81.65466 | 15553 ft | 324 kts | 189° |
| 2026-04-22 16:15 | 26.91109 | -81.65798 | 15137 ft | 331 kts | 192° |
| 2026-04-22 16:15 | 26.88814 | -81.66177 | 14701 ft | 335 kts | 191° |
| 2026-04-22 16:15 | 26.86501 | -81.66517 | 14278 ft | 332 kts | 191° |
| 2026-04-22 16:16 | 26.84243 | -81.66879 | 13842 ft | 324 kts | 191° |
| 2026-04-22 16:16 | 26.82030 | -81.67222 | 13368 ft | 318 kts | 191° |
| 2026-04-22 16:16 | 26.79866 | -81.67557 | 12908 ft | 311 kts | 191° |
| 2026-04-22 16:16 | 26.77736 | -81.67893 | 12456 ft | 307 kts | 191° |
| 2026-04-22 16:17 | 26.75636 | -81.68218 | 12009 ft | 303 kts | 190° |
| 2026-04-22 16:17 | 26.73558 | -81.68540 | 11566 ft | 300 kts | 189° |
| 2026-04-22 16:17 | 26.71495 | -81.68860 | 11138 ft | 299 kts | 189° |
| 2026-04-22 16:17 | 26.69442 | -81.69180 | 10713 ft | 297 kts | 189° |
| 2026-04-22 16:18 | 26.67409 | -81.69497 | 10260 ft | 294 kts | 188° |
| 2026-04-22 16:18 | 26.65394 | -81.69808 | 9758 ft | 290 kts | 188° |
| 2026-04-22 16:18 | 26.63422 | -81.70116 | 9242 ft | 282 kts | 188° |
| 2026-04-22 16:18 | 26.61499 | -81.70414 | 8736 ft | 277 kts | 187° |
| 2026-04-22 16:19 | 26.59604 | -81.70708 | 8238 ft | 273 kts | 187° |
| 2026-04-22 16:19 | 26.57732 | -81.70998 | 7747 ft | 271 kts | 186° |
| 2026-04-22 16:19 | 26.55866 | -81.71287 | 7267 ft | 270 kts | 186° |
| 2026-04-22 16:19 | 26.54013 | -81.71576 | 6788 ft | 268 kts | 185° |
| 2026-04-22 16:20 | 26.52169 | -81.71859 | 6294 ft | 267 kts | 185° |
| 2026-04-22 16:20 | 26.50341 | -81.72145 | 5789 ft | 265 kts | 184° |
| 2026-04-22 16:20 | 26.48546 | -81.72422 | 5300 ft | 263 kts | 184° |
| 2026-04-22 16:20 | 26.46734 | -81.72696 | 4807 ft | 263 kts | 184° |
| 2026-04-22 16:21 | 26.44954 | -81.72984 | 4296 ft | 254 kts | 184° |
| 2026-04-22 16:21 | 26.43216 | -81.73251 | 3810 ft | 251 kts | 183° |
| 2026-04-22 16:21 | 26.41497 | -81.73505 | 3300 ft | 247 kts | 183° |
| 2026-04-22 16:21 | 26.39814 | -81.73775 | 2785 ft | 241 kts | 183° |
| 2026-04-22 16:22 | 26.36601 | -81.74267 | 1988 ft | 223 kts | 184° |
| 2026-04-22 16:22 | 26.35034 | -81.74509 | 1838 ft | 234 kts | 184° |
| 2026-04-22 16:22 | 26.33385 | -81.74763 | 1757 ft | 243 kts | 184° |
| 2026-04-22 16:23 | 26.30077 | -81.75682 | 1719 ft | 246 kts | 192° |
| 2026-04-22 16:23 | 26.28445 | -81.76236 | 1704 ft | 244 kts | 193° |
| 2026-04-22 16:23 | 26.26815 | -81.76793 | 1703 ft | 246 kts | 193° |
| 2026-04-22 16:24 | 26.25188 | -81.77360 | 1699 ft | 245 kts | 194° |
| 2026-04-22 16:24 | 26.22071 | -81.78476 | 1515 ft | 204 kts | 194° |
| 2026-04-22 16:24 | 26.20879 | -81.78917 | 1217 ft | 162 kts | 189° |
| 2026-04-22 16:25 | 26.19897 | -81.79141 | 1051 ft | 134 kts | 177° |
| 2026-04-22 16:25 | 26.18076 | -81.79229 | 730 ft | 126 kts | 169° |
| 2026-04-22 16:25 | 26.17233 | -81.79147 | 583 ft | 113 kts | 162° |
| 2026-04-22 16:26 | 26.16535 | -81.78810 | 365 ft | 111 kts | 140° |
| 2026-04-22 16:26 | 26.15973 | -81.78271 | 123 ft | 104 kts | 130° |
| 2026-04-22 16:26 | 26.15486 | -81.77707 | 13 ft | 91 kts | 132° |
| 2026-04-22 16:26 | 26.15121 | -81.77297 | 8 ft | 57 kts | 136° |
| 2026-04-22 16:27 | 26.14917 | -81.77063 | 8 ft | 22 kts | 135° |
| 2026-04-22 16:27 | 26.14847 | -81.76986 | 10 ft | 14 kts | 136° |
| 2026-04-22 16:27 | 26.14796 | -81.76959 | 11 ft | 6 kts | 190° |
| 2026-04-22 16:27 | 26.14769 | -81.77008 | 11 ft | 16 kts | 273° |
| 2026-04-22 16:28 | 26.14820 | -81.77085 | 10 ft | 12 kts | 315° |
| 2026-04-22 16:28 | 26.14919 | -81.77194 | 8 ft | 20 kts | 313° |
| 2026-04-22 16:28 | 26.14982 | -81.77270 | 9 ft | 12 kts | 305° |
| 2026-04-22 16:28 | 26.14940 | -81.77352 | 9 ft | 6 kts | 241° |
| 2026-04-22 16:29 | 26.14930 | -81.77405 | 11 ft | 0 kts | 260° |